Flight Track Log - Related Links

Times and Time Zones

All times are in EDT time to prevent confusion due to time zone crossing. See the AFL1143 flight status page for this flight to view local times or setup timezone preferences in your user account.

Time Position Orientation Groundspeed Altitude Reporting Facility
EDT Latitude Longitude Course Direction KTS MPH feet Rate Location/Type
Sun 12:03:00 PM 45.5482 37.3202 North  Level Estimated
Sun 12:04:00 PM 45.6353 37.3209 North  Level Estimated
Sun 12:05:00 PM 45.7224 37.3215 North  Level Estimated
Sun 12:06:00 PM 45.8095 37.3221 North  Level Estimated
Sun 12:07:00 PM 45.8967 37.3228 North  Level Estimated
Sun 12:08:00 PM 45.9838 37.3234 North  Level Estimated
Sun 12:09:00 PM 46.0709 37.3241 North  Level Estimated
Sun 12:10:00 PM 46.1580 37.3247 North  Level Estimated
Sun 12:11:00 PM 46.2452 37.3254 North  Level Estimated
Sun 12:12:00 PM 46.3323 37.3260 North  Level Estimated
Sun 12:13:00 PM 46.4194 37.3267 North  Level Estimated
Sun 12:14:00 PM 46.5065 37.3273 North  Level Estimated
Sun 12:15:00 PM 46.5937 37.3280 North  Level Estimated
Sun 12:16:00 PM 46.6808 37.3286 North  Level Estimated
Sun 12:17:00 PM 46.7679 37.3293 North  Level Estimated
Sun 12:18:00 PM 46.8550 37.3300 North  Level Estimated
Sun 12:19:00 PM 46.9421 37.3306 North  Level Estimated
Sun 12:20:00 PM 47.0293 37.3313 North  Level Estimated
Sun 12:21:00 PM 47.1164 37.3320 North  Level Estimated
Sun 12:22:00 PM 47.2035 37.3326 North  Level Estimated
Sun 12:23:00 PM 47.2906 37.3333 North  Level Estimated
Sun 12:24:00 PM 47.3778 37.3340 North  Level Estimated
Sun 12:25:00 PM 47.4649 37.3347 North  Level Estimated
Sun 12:26:00 PM 47.5520 37.3354 North  Level Estimated
Sun 12:27:00 PM 47.6391 37.3360 North  Level Estimated
Sun 12:28:00 PM 47.7263 37.3367 North  Level Estimated
Sun 12:29:00 PM 47.8634 37.3378 North  Level Estimated
Sun 12:30:00 PM 48.0006 37.3389 North  Level Estimated
Sun 12:31:00 PM 48.1377 37.3400 North  Level Estimated
Sun 12:32:00 PM 48.2749 37.3411 North  Level Estimated
Sun 12:33:00 PM 48.4121 37.3422 North  Level Estimated
Sun 12:34:00 PM 48.5493 37.3433 North  Level Estimated
Sun 12:35:00 PM 48.6864 37.3444 North  Level Estimated
Sun 12:36:00 PM 48.8236 37.3456 North  Level Estimated
Sun 12:37:00 PM 48.9607 37.3467 North  Level Estimated
Sun 12:38:00 PM 49.0979 37.3478 North  Level Estimated
Sun 12:39:00 PM 49.2351 37.3490 North  Level Estimated
Sun 12:40:00 PM 49.3722 37.3501 North  Level Estimated
Sun 12:41:00 PM 49.5094 37.3513 North  Level Estimated
Sun 12:42:00 PM 49.6466 37.3524 North  Level Estimated
Sun 12:43:00 PM 49.7837 37.3536 North  Level Estimated
Sun 12:44:00 PM 49.9209 37.3548 North  Level Estimated
Sun 12:45:00 PM 50.0581 37.3560 North  Level Estimated
Sun 12:46:00 PM 50.1952 37.3572 North  Level Estimated
Sun 12:47:00 PM 50.3324 37.3584 North  Level Estimated
Sun 12:48:00 PM 50.4696 37.3596 North  Level Estimated
Sun 12:49:00 PM 50.6067 37.3608 North  Level Estimated
Sun 12:50:00 PM 50.7439 37.3620 North  Level Estimated
Sun 12:51:00 PM 50.8811 37.3632 North  Level Estimated
Sun 12:52:00 PM 51.0182 37.3644 North  Level Estimated
Sun 12:53:00 PM 51.1554 37.3657 North  Level Estimated
Sun 12:54:00 PM 51.2925 37.3669 North  Level Estimated
Sun 12:55:00 PM 51.4297 37.3682 North  Level Estimated
Sun 12:56:00 PM 51.5669 37.3695 North  Level Estimated
Sun 12:57:00 PM 51.7040 37.3707 North  Level Estimated
Sun 12:58:00 PM 51.8412 37.3720 North  Level Estimated
Sun 12:59:00 PM 51.9784 37.3733 North  Level Estimated
Sun 01:00:00 PM 52.1155 37.3746 North  Level Estimated
Sun 01:01:00 PM 52.2527 37.3759 North  Level Estimated
Sun 01:02:00 PM 52.3899 37.3772 North  Level Estimated
Sun 01:03:00 PM 52.5270 37.3785 North  Level Estimated
Sun 01:04:00 PM 52.6642 37.3798 North  Level Estimated
Sun 01:05:00 PM 52.8014 37.3812 North  Level Estimated
Sun 01:06:00 PM 52.9385 37.3825 North  Level Estimated
Sun 01:07:00 PM 53.0757 37.3839 North  Level Estimated
Sun 01:08:00 PM 53.2129 37.3852 North  Level Estimated
Sun 01:09:00 PM 53.3500 37.3866 North  Level Estimated
Sun 01:10:00 PM 53.4872 37.3880 North  Level Estimated
Sun 01:11:00 PM 53.6244 37.3894 North  Level Estimated
Sun 01:12:00 PM 53.7615 37.3908 North  Level Estimated
Sun 01:13:00 PM 53.8987 37.3922 North  Level Estimated
Sun 01:14:00 PM 54.0359 37.3936 North  Level Estimated
Sun 01:15:00 PM 54.1730 37.3950 North  Level Estimated
Sun 01:16:00 PM 54.3102 37.3964 North  Level Estimated
Sun 01:17:00 PM 54.4473 37.3979 North  Level Estimated
Sun 01:18:00 PM 54.5845 37.3993 North  Level Estimated
Sun 01:19:00 PM 54.7217 37.4008 North  Level Estimated
Sun 01:20:00 PM 54.8588 37.4023 North  Level Estimated
Sun 01:21:00 PM 54.9960 37.4037 North  Level Estimated
Sun 01:22:00 PM 55.1332 37.4052 North  Level Estimated
Sun 01:23:00 PM 55.2703 37.4067 North  Level Estimated
Sun 01:24:00 PM 55.4075 37.4082 North  Level Estimated
Sun 01:25:00 PM 55.5447 37.4098 North  Level Estimated
Sun 01:26:00 PM 55.6818 37.4113 North  Level Estimated
Sun 01:27:00 PM 55.8190 37.4128 North  Level Estimated
Sun 01:28:00 PM 55.9562 37.4144 North  Level Estimated
Sun 01:29:00 PM 55.9726 37.4146 North  Level Estimated
Sun 01:30:00 PM 55.9726 37.4146 North  Level Estimated
Sun 01:31:00 PM 55.9726 37.4146 North  Level Estimated
Sun 01:32:00 PM 55.9726 37.4146 North  Level Estimated
Sun 01:33:00 PM 55.9726 37.4146 North  Level Estimated
Sun 01:34:00 PM 55.9726 37.4146 North  Level Estimated
Sun 01:35:00 PM 55.9726 37.4146 North  Level Estimated
Sun 01:36:00 PM 55.9726 37.4146 North  Level Estimated
Sun 01:37:00 PM 55.9726 37.4146 North  Level Estimated
Sun 01:38:00 PM 55.9726 37.4146 North  Level Estimated
Sun 01:39:00 PM 55.9726 37.4146 North  Level Estimated
Sun 01:40:00 PM 55.9726 37.4146 North  Level Estimated
Sun 01:41:00 PM 55.9726 37.4146 North  Level Estimated
Sun 01:42:00 PM 55.9726 37.4146 North  Level Estimated
Sun 01:43:00 PM 55.9726 37.4146 North  Level Estimated
Sun 01:44:00 PM 55.9726 37.4146 North  Level Estimated
Sun 01:45:00 PM 55.9726 37.4146 North  Level Estimated
Sun 01:46:00 PM 55.9726 37.4146 North  Level Estimated

Login

Don't have an account? Register now (free) for customized features, flight alerts, and more!